createdAt,value
2018-07-11T00:01:42.698Z,95330.84
2018-07-11T00:04:12.710Z,95332.75
2018-07-11T00:06:41.765Z,95341.23
2018-07-11T00:09:10.835Z,95339.01
2018-07-11T00:11:39.911Z,95339.91
2018-07-11T00:16:44.685Z,95345.48
2018-07-11T00:19:15.703Z,95345.42
2018-07-11T00:24:20.467Z,95339.39
2018-07-11T00:26:50.483Z,95337.53
2018-07-11T00:29:19.698Z,95336.08
2018-07-11T00:34:24.455Z,95333.55
2018-07-11T00:39:29.314Z,95341.50
2018-07-11T00:41:58.397Z,95347.84
2018-07-11T00:44:27.481Z,95337.28
2018-07-11T00:46:57.507Z,95339.88
2018-07-11T00:49:26.569Z,95340.97
2018-07-11T00:51:55.641Z,95341.84
2018-07-11T00:54:24.732Z,95336.75
2018-07-11T00:59:29.653Z,95334.02
2018-07-11T01:01:58.722Z,95334.80
2018-07-11T01:04:27.794Z,95334.38
2018-07-11T01:06:56.858Z,95336.77
2018-07-11T01:09:25.965Z,95337.00
2018-07-11T01:11:55.067Z,95336.91
2018-07-11T01:14:27.078Z,95332.62
2018-07-11T01:16:56.150Z,95338.21
2018-07-11T01:19:26.152Z,95335.59
2018-07-11T01:21:58.468Z,95336.90
2018-07-11T01:24:27.696Z,95332.79
2018-07-11T01:29:32.530Z,95336.20
2018-07-11T01:32:01.602Z,95336.30
2018-07-11T01:34:30.671Z,95331.27
2018-07-11T01:42:11.745Z,95336.80
2018-07-11T01:44:40.812Z,95335.22
2018-07-11T01:47:09.896Z,95335.08
2018-07-11T01:49:38.963Z,95338.31
2018-07-11T01:54:43.738Z,95331.30
2018-07-11T01:57:12.810Z,95321.66
2018-07-11T02:02:17.592Z,95320.77
2018-07-11T02:04:46.686Z,95324.71
2018-07-11T02:07:17.708Z,95322.10
2018-07-11T02:09:47.758Z,95318.98
2018-07-11T02:14:08.777Z,95316.91
2018-07-11T02:19:13.552Z,95317.66
2018-07-11T02:21:42.631Z,95316.73
2018-07-11T02:26:47.399Z,95325.36
2018-07-11T02:29:16.486Z,95324.81
2018-07-11T02:31:49.890Z,95330.41
2018-07-11T02:34:18.982Z,95332.28
2018-07-11T02:36:48.957Z,95332.80
2018-07-11T02:39:18.021Z,95325.26
2018-07-11T02:41:48.167Z,95326.64
2018-07-11T02:44:17.154Z,95321.63
2018-07-11T02:46:46.218Z,95314.17
2018-07-11T02:49:15.294Z,95316.98
2018-07-11T02:51:44.353Z,95316.33
2018-07-11T02:54:13.496Z,95314.66
2018-07-11T02:56:42.559Z,95318.16
2018-07-11T02:59:11.655Z,95320.84
2018-07-11T03:01:40.715Z,95324.03
2018-07-11T03:04:11.756Z,95322.02
2018-07-11T03:09:16.534Z,95314.09
2018-07-11T03:11:45.610Z,95311.48
2018-07-11T03:14:16.654Z,95310.17
2018-07-11T03:16:45.722Z,95304.96
2018-07-11T03:19:14.785Z,95305.46
2018-07-11T03:21:47.229Z,95311.06
2018-07-11T03:24:18.452Z,95320.95
2018-07-11T03:26:48.487Z,95326.11
2018-07-11T03:31:53.259Z,95325.47
2018-07-11T03:34:24.285Z,95329.20
2018-07-11T03:36:57.596Z,95323.60
2018-07-11T03:42:03.817Z,95322.91
2018-07-11T03:44:32.882Z,95325.19
2018-07-11T03:47:03.901Z,95323.62
2018-07-11T03:52:08.719Z,95326.33
2018-07-11T03:54:37.786Z,95325.02
2018-07-11T03:59:42.753Z,95318.95
2018-07-11T04:02:11.814Z,95318.56
2018-07-11T04:04:40.873Z,95317.86
2018-07-11T04:07:10.064Z,95316.36
2018-07-11T04:09:39.457Z,95316.62
2018-07-11T04:14:45.497Z,95324.16
2018-07-11T04:17:14.564Z,95320.12
2018-07-11T04:19:43.620Z,95321.55
2018-07-11T04:22:12.686Z,95323.89
2018-07-11T04:27:17.453Z,95327.80
2018-07-11T04:29:46.734Z,95320.84
2018-07-11T04:32:17.063Z,95321.17
2018-07-11T04:34:48.524Z,95326.93
2018-07-11T04:37:17.633Z,95325.45
2018-07-11T04:39:46.699Z,95325.47
2018-07-11T04:42:15.937Z,95327.38
2018-07-11T04:44:45.017Z,95327.89
2018-07-11T04:47:14.114Z,95336.98
2018-07-11T04:49:43.510Z,95337.39
2018-07-11T04:52:12.990Z,95343.45
2018-07-11T04:59:53.561Z,95334.84
2018-07-11T05:02:23.050Z,95343.95
2018-07-11T05:04:53.166Z,95343.05
2018-07-11T05:07:22.201Z,95344.50
2018-07-11T05:09:51.359Z,95341.38
2018-07-11T05:12:21.708Z,95343.87
2018-07-11T05:17:26.849Z,95355.62
2018-07-11T05:19:56.365Z,95356.36
2018-07-11T05:22:25.385Z,95357.13
2018-07-11T05:24:54.481Z,95362.58
2018-07-11T05:27:23.541Z,95363.09
2018-07-11T05:29:52.578Z,95367.37
2018-07-11T05:32:21.641Z,95375.86
2018-07-11T05:34:52.853Z,95377.97
2018-07-11T05:37:21.920Z,95371.41
2018-07-11T05:39:50.980Z,95367.78
2018-07-11T05:42:20.388Z,95371.20
2018-07-11T05:44:49.677Z,95372.22
2018-07-11T05:47:19.789Z,95368.47
2018-07-11T05:49:48.849Z,95373.56
2018-07-11T05:54:54.611Z,95374.48
2018-07-11T05:57:24.630Z,95379.57
2018-07-11T06:02:31.905Z,95384.13
2018-07-11T06:07:37.032Z,95387.76
2018-07-11T06:10:09.499Z,95392.37
2018-07-11T06:12:41.662Z,95393.01
2018-07-11T06:15:12.897Z,95384.07
2018-07-11T06:17:46.738Z,95376.28
2018-07-11T06:22:51.707Z,95391.98
2018-07-11T06:25:20.770Z,95394.47
2018-07-11T06:27:49.845Z,95391.87
2018-07-11T06:30:19.113Z,95392.00
2018-07-11T06:32:48.509Z,95388.38
2018-07-11T06:35:18.099Z,95390.66
2018-07-11T06:40:23.867Z,95395.65
2018-07-11T06:42:53.922Z,95394.47
2018-07-11T06:45:23.987Z,95401.45
2018-07-11T06:53:04.518Z,95403.88
2018-07-11T06:55:33.587Z,95405.31
2018-07-11T07:03:14.388Z,95411.93
2018-07-11T07:05:43.445Z,95416.13
2018-07-11T07:08:12.768Z,95425.94
2018-07-11T07:10:41.822Z,95424.94
2018-07-11T07:13:10.896Z,95425.36
2018-07-11T07:18:17.884Z,95417.73
2018-07-11T07:20:47.562Z,95420.24
2018-07-11T07:23:16.807Z,95418.34
2018-07-11T07:30:57.522Z,95411.23
2018-07-11T07:36:02.289Z,95405.12
2018-07-11T07:38:34.616Z,95404.68
2018-07-11T07:41:04.673Z,95406.13
2018-07-11T07:43:33.942Z,95411.45
2018-07-11T07:46:03.009Z,95412.05
2018-07-11T07:48:32.074Z,95413.64
2018-07-11T07:51:01.122Z,95403.47
2018-07-11T07:53:30.199Z,95406.36
2018-07-11T07:58:35.231Z,95402.52
2018-07-11T08:08:53.766Z,95398.51
2018-07-11T08:11:22.822Z,95398.77
2018-07-11T08:13:52.049Z,95392.98
2018-07-11T08:16:21.521Z,95400.59
2018-07-11T08:21:26.677Z,95394.38
2018-07-11T08:27:32.704Z,95385.02
2018-07-11T08:30:13.048Z,95388.38
2018-07-11T08:32:55.120Z,95389.62
2018-07-11T08:35:30.560Z,95391.88
2018-07-11T08:38:05.207Z,95391.41
2018-07-11T08:45:57.124Z,95397.44
2018-07-11T08:48:35.390Z,95396.84
2018-07-11T08:51:05.584Z,95390.52
2018-07-11T08:53:35.559Z,95393.20
2018-07-11T08:58:48.327Z,95388.17
2018-07-11T09:01:29.742Z,95387.99
2018-07-11T09:06:45.265Z,95394.24
2018-07-11T09:09:21.061Z,95389.16
2018-07-11T09:11:55.982Z,95386.94
2018-07-11T09:14:31.432Z,95389.63
2018-07-11T09:17:08.824Z,95389.23
2018-07-11T09:19:47.325Z,95392.84
2018-07-11T09:22:25.153Z,95396.31
2018-07-11T09:27:38.296Z,95396.42
2018-07-11T09:32:50.018Z,95380.64
2018-07-11T09:35:24.696Z,95380.86
2018-07-11T09:37:58.028Z,95374.00
2018-07-11T09:40:34.178Z,95387.31
2018-07-11T09:43:09.869Z,95388.77
2018-07-11T09:53:34.636Z,95389.45
2018-07-11T09:56:13.526Z,95383.14
2018-07-11T09:58:47.825Z,95385.34
2018-07-11T10:04:03.325Z,95385.59
2018-07-11T10:06:45.080Z,95383.48
2018-07-11T10:09:22.317Z,95377.16
2018-07-11T10:11:59.592Z,95382.02
2018-07-11T10:14:35.900Z,95383.95
2018-07-11T10:17:11.397Z,95383.45
2018-07-11T10:19:47.434Z,95381.66
2018-07-11T10:24:57.423Z,95383.27
2018-07-11T10:30:08.918Z,95380.58
2018-07-11T10:32:46.884Z,95383.84
2018-07-11T10:35:21.141Z,95372.75
2018-07-11T10:37:54.971Z,95380.19
2018-07-11T10:40:30.705Z,95378.77
2018-07-11T10:43:11.006Z,95375.13
2018-07-11T10:48:22.826Z,95383.13
2018-07-11T10:50:59.537Z,95386.18
2018-07-11T10:53:36.458Z,95395.11
2018-07-11T10:56:11.890Z,95392.41
2018-07-11T10:58:46.059Z,95401.59
2018-07-11T11:01:21.663Z,95397.44
2018-07-11T11:09:09.822Z,95392.14
2018-07-11T11:14:26.059Z,95398.56
2018-07-11T11:17:01.463Z,95389.29
2018-07-11T11:19:35.967Z,95386.52
2018-07-11T11:24:46.934Z,95387.64
2018-07-11T11:27:22.296Z,95394.79
2018-07-11T11:29:59.471Z,95385.61
2018-07-11T11:32:37.626Z,95386.69
2018-07-11T11:35:17.513Z,95383.09
2018-07-11T11:37:53.013Z,95389.22
2018-07-11T11:40:28.369Z,95383.38
2018-07-11T11:45:41.148Z,95388.75
2018-07-11T11:50:52.588Z,95392.97
2018-07-11T11:53:26.390Z,95394.34
2018-07-11T11:56:02.754Z,95391.29
2018-07-11T12:01:15.202Z,95397.05
2018-07-11T12:03:49.417Z,95404.05
2018-07-11T12:06:23.910Z,95402.66
2018-07-11T12:08:57.922Z,95403.09
2018-07-11T12:11:32.404Z,95397.44
2018-07-11T12:14:11.417Z,95395.25
2018-07-11T12:16:47.122Z,95392.63
2018-07-11T12:19:21.819Z,95392.09
2018-07-11T12:22:02.734Z,95391.89
2018-07-11T12:24:37.126Z,95398.78
2018-07-11T12:27:13.904Z,95404.38
2018-07-11T12:29:51.381Z,95409.27
2018-07-11T12:35:01.671Z,95408.05
2018-07-11T12:37:40.653Z,95401.34
2018-07-11T12:42:54.423Z,95399.82
2018-07-11T12:45:30.004Z,95402.17
2018-07-11T12:48:05.940Z,95396.80
2018-07-11T12:53:15.701Z,95403.73
2018-07-11T12:58:26.747Z,95400.05
2018-07-11T13:01:03.256Z,95401.97
2018-07-11T13:03:41.859Z,95398.81
2018-07-11T13:06:17.678Z,95398.23
2018-07-11T13:08:54.953Z,95383.72
2018-07-11T13:11:28.644Z,95389.45
2018-07-11T13:14:00.789Z,95390.14
2018-07-11T13:21:48.405Z,95384.30
2018-07-11T13:26:58.976Z,95388.14
2018-07-11T13:29:33.729Z,95392.31
2018-07-11T13:32:07.548Z,95390.63
2018-07-11T13:34:41.236Z,95395.88
2018-07-11T13:40:00.899Z,95394.53
2018-07-11T13:42:40.929Z,95390.31
2018-07-11T13:45:17.244Z,95390.47
2018-07-11T13:47:55.411Z,95390.50
2018-07-11T13:50:32.393Z,95383.50
2018-07-11T13:53:07.277Z,95383.76
2018-07-11T13:55:41.993Z,95366.34
2018-07-11T13:58:16.173Z,95367.17
2018-07-11T14:00:49.966Z,95373.72
2018-07-11T14:03:22.643Z,95381.96
2018-07-11T14:05:55.418Z,95388.16
2018-07-11T14:08:32.005Z,95392.32
2018-07-11T14:11:06.515Z,95384.34
2018-07-11T14:13:39.506Z,95385.68
2018-07-11T14:16:13.347Z,95384.75
2018-07-11T14:18:46.584Z,95385.88
2018-07-11T14:26:45.029Z,95381.09
2018-07-11T14:29:21.173Z,95385.50
2018-07-11T14:31:57.485Z,95387.74
2018-07-11T14:34:32.951Z,95382.78
2018-07-11T14:37:07.438Z,95386.61
2018-07-11T14:39:42.447Z,95388.04
2018-07-11T14:42:20.622Z,95392.75
2018-07-11T14:44:59.769Z,95385.03
2018-07-11T14:47:36.674Z,95376.58
2018-07-11T14:50:14.109Z,95378.62
2018-07-11T14:52:52.825Z,95383.84
2018-07-11T14:55:33.025Z,95387.91
2018-07-11T14:58:07.369Z,95394.61
2018-07-11T15:03:17.578Z,95398.08
2018-07-11T15:05:55.986Z,95402.16
2018-07-11T15:13:47.830Z,95407.58
2018-07-11T15:18:58.604Z,95405.64
2018-07-11T15:21:32.095Z,95405.09
2018-07-11T15:24:06.525Z,95399.38
2018-07-11T15:26:44.840Z,95397.01
2018-07-11T15:29:16.548Z,95392.69
2018-07-11T15:31:51.716Z,95395.47
2018-07-11T15:34:26.793Z,95398.41
2018-07-11T15:37:02.582Z,95398.63
2018-07-11T15:39:37.687Z,95388.55
2018-07-11T15:42:13.886Z,95382.28
2018-07-11T15:44:43.118Z,95375.84
2018-07-11T15:47:21.660Z,95383.70
2018-07-11T15:49:58.664Z,95394.31
2018-07-11T15:55:13.468Z,95399.92
2018-07-11T15:57:48.112Z,95398.34
2018-07-11T16:00:22.967Z,95396.39
2018-07-11T16:05:36.001Z,95399.38
2018-07-11T16:08:10.279Z,95399.56
2018-07-11T16:10:48.849Z,95399.37
2018-07-11T16:13:22.984Z,95405.31
2018-07-11T16:15:57.648Z,95413.37
2018-07-11T16:18:32.855Z,95408.52
2018-07-11T16:21:05.975Z,95407.84
2018-07-11T16:23:46.219Z,95404.57
2018-07-11T16:26:39.312Z,95409.27
2018-07-11T16:29:13.878Z,95420.89
2018-07-11T16:31:47.743Z,95416.74
2018-07-11T16:34:21.294Z,95416.39
2018-07-11T16:36:55.526Z,95419.37
2018-07-11T16:39:24.565Z,95432.49
2018-07-11T16:42:03.143Z,95433.84
2018-07-11T16:44:41.990Z,95435.27
2018-07-11T16:47:23.933Z,95440.14
2018-07-11T16:49:59.712Z,95444.86
2018-07-11T16:52:36.913Z,95448.03
2018-07-11T16:55:13.654Z,95450.30
2018-07-11T16:57:48.084Z,95444.69
2018-07-11T17:00:26.374Z,95450.48
2018-07-11T17:05:39.941Z,95452.38
2018-07-11T17:08:18.352Z,95456.95
2018-07-11T17:10:54.239Z,95458.56
2018-07-11T17:13:28.481Z,95458.99
2018-07-11T17:16:04.836Z,95456.84
2018-07-11T17:18:42.094Z,95461.02
2018-07-11T17:21:18.311Z,95458.16
2018-07-11T17:24:00.774Z,95463.13
2018-07-11T17:26:39.966Z,95457.62
2018-07-11T17:31:46.685Z,95461.25
2018-07-11T17:34:22.743Z,95455.70
2018-07-11T17:36:59.082Z,95458.98
2018-07-11T17:39:33.842Z,95463.34
2018-07-11T17:42:12.302Z,95467.06
2018-07-11T17:44:57.711Z,95468.73
2018-07-11T17:47:32.770Z,95468.14
2018-07-11T17:50:07.485Z,95471.27
2018-07-11T17:55:19.822Z,95475.01
2018-07-11T17:57:54.175Z,95478.36
2018-07-11T18:00:29.761Z,95478.95
2018-07-11T18:03:09.698Z,95477.38
2018-07-11T18:05:50.573Z,95483.22
2018-07-11T18:08:25.817Z,95481.87
2018-07-11T18:11:01.098Z,95478.28
2018-07-11T18:13:40.330Z,95477.66
2018-07-11T18:18:57.548Z,95480.06
2018-07-11T18:21:37.700Z,95481.81
2018-07-11T18:24:13.434Z,95486.86
2018-07-11T18:26:50.033Z,95489.89
2018-07-11T18:29:29.018Z,95491.56
2018-07-11T18:32:12.252Z,95501.70
2018-07-11T18:34:52.134Z,95497.84
2018-07-11T18:37:29.556Z,95505.02
2018-07-11T18:42:42.028Z,95508.23
2018-07-11T18:47:49.996Z,95508.60
2018-07-11T18:50:19.105Z,95507.80
2018-07-11T18:55:23.842Z,95519.65
2018-07-11T18:57:52.912Z,95520.37
2018-07-11T19:00:23.962Z,95524.23
2018-07-11T19:02:53.033Z,95524.91
2018-07-11T19:05:37.415Z,95527.02
2018-07-11T19:08:07.786Z,95524.70
2018-07-11T19:10:37.053Z,95525.26
2018-07-11T19:15:42.048Z,95525.15
2018-07-11T19:18:11.304Z,95525.09
2018-07-11T19:23:16.077Z,95537.81
2018-07-11T19:25:46.078Z,95539.81
2018-07-11T19:28:15.133Z,95539.30
2018-07-11T19:30:44.253Z,95542.50
2018-07-11T19:33:13.618Z,95546.77
2018-07-11T19:35:42.687Z,95556.94
2018-07-11T19:38:11.733Z,95555.45
2018-07-11T19:40:40.819Z,95557.72
2018-07-11T19:43:09.885Z,95560.20
2018-07-11T19:45:38.988Z,95562.33
2018-07-11T19:48:09.045Z,95565.48
2018-07-11T19:53:13.766Z,95569.85
2018-07-11T19:58:18.513Z,95568.27
2018-07-11T20:00:47.594Z,95578.22
2018-07-11T20:03:16.677Z,95582.19
2018-07-11T20:08:21.468Z,95587.91
2018-07-11T20:10:51.537Z,95584.16
2018-07-11T20:13:20.624Z,95581.86
2018-07-11T20:15:49.803Z,95580.59
2018-07-11T20:18:18.922Z,95575.66
2018-07-11T20:20:47.973Z,95574.50
2018-07-11T20:23:17.032Z,95572.59
2018-07-11T20:25:46.078Z,95572.98
2018-07-11T20:28:15.153Z,95573.89
2018-07-11T20:30:44.225Z,95573.61
2018-07-11T20:33:13.278Z,95572.20
2018-07-11T20:35:47.071Z,95570.05
2018-07-11T20:38:16.140Z,95573.19
2018-07-11T20:40:45.199Z,95573.55
2018-07-11T20:43:14.288Z,95578.41
2018-07-11T20:45:43.354Z,95576.81
2018-07-11T20:48:13.327Z,95580.51
2018-07-11T20:53:18.145Z,95581.37
2018-07-11T20:55:47.210Z,95584.27
2018-07-11T20:58:34.220Z,95585.72
2018-07-11T21:04:14.731Z,95592.96
2018-07-11T21:06:44.829Z,95598.31
2018-07-11T21:11:49.688Z,95598.88
2018-07-11T21:14:18.739Z,95600.19
2018-07-11T21:16:47.922Z,95599.68
2018-07-11T21:19:17.362Z,95597.58
2018-07-11T21:21:46.452Z,95595.27
2018-07-11T21:24:17.426Z,95596.03
2018-07-11T21:26:47.501Z,95600.59
2018-07-11T21:29:16.534Z,95600.64
2018-07-11T21:31:45.629Z,95599.13
2018-07-11T21:34:14.711Z,95602.64
2018-07-11T21:36:43.762Z,95601.98
2018-07-11T21:39:12.902Z,95597.36
2018-07-11T21:41:43.893Z,95598.14
2018-07-11T21:46:49.649Z,95600.26
2018-07-11T21:49:18.708Z,95600.03
2018-07-11T21:51:47.771Z,95595.50
2018-07-11T21:54:17.801Z,95594.84
2018-07-11T21:59:23.551Z,95591.55
2018-07-11T22:01:53.567Z,95593.10
2018-07-11T22:04:23.651Z,95597.34
2018-07-11T22:09:28.464Z,95588.20
2018-07-11T22:11:58.445Z,95590.04
2018-07-11T22:14:27.585Z,95587.88
2018-07-11T22:16:56.567Z,95589.20
2018-07-11T22:22:00.551Z,95595.23
2018-07-11T22:24:29.368Z,95590.19
2018-07-11T22:26:58.611Z,95589.17
2018-07-11T22:29:27.801Z,95592.40
2018-07-11T22:31:56.080Z,95594.16
2018-07-11T22:34:25.303Z,95592.33
2018-07-11T22:36:53.580Z,95591.08
2018-07-11T22:39:21.861Z,95594.65
2018-07-11T22:41:50.133Z,95593.97
2018-07-11T22:44:18.395Z,95596.97
2018-07-11T22:46:46.654Z,95594.66
2018-07-11T22:49:15.049Z,95594.72
2018-07-11T22:51:43.285Z,95596.20
2018-07-11T22:56:47.319Z,95594.33
2018-07-11T22:59:16.677Z,95595.55
2018-07-11T23:01:44.922Z,95599.75
2018-07-11T23:04:13.182Z,95597.55
2018-07-11T23:09:18.242Z,95600.92
2018-07-11T23:11:47.423Z,95594.19
2018-07-11T23:14:16.592Z,95596.92
2018-07-11T23:16:45.838Z,95593.11
2018-07-11T23:19:14.101Z,95596.03
2018-07-11T23:21:42.371Z,95596.05
2018-07-11T23:26:47.341Z,95591.70
2018-07-11T23:29:15.667Z,95591.09
2018-07-11T23:31:47.279Z,95592.78
2018-07-11T23:34:17.506Z,95587.27
2018-07-11T23:36:45.786Z,95588.20
2018-07-11T23:39:14.074Z,95587.80
2018-07-11T23:41:42.346Z,95585.97
2018-07-11T23:44:10.629Z,95588.71
2018-07-11T23:46:42.026Z,95588.83
2018-07-11T23:49:10.289Z,95587.93
2018-07-11T23:51:38.554Z,95585.88
2018-07-11T23:54:06.830Z,95585.29
2018-07-11T23:56:35.095Z,95587.58
